createdAt,value
2022-12-31T00:01:50.521Z,0.95
2022-12-31T00:05:34.743Z,2.08
2022-12-31T00:09:11.063Z,0.10
2022-12-31T00:12:46.851Z,0.57
2022-12-31T00:16:16.147Z,0.30
2022-12-31T00:19:40.619Z,0.80
2022-12-31T00:23:12.664Z,1.95
2022-12-31T00:26:53.717Z,0.45
2022-12-31T00:30:16.746Z,0.95
2022-12-31T00:33:51.696Z,0.70
2022-12-31T00:37:24.772Z,2.78
2022-12-31T00:40:49.094Z,3.05
2022-12-31T00:44:25.924Z,0.47
2022-12-31T00:47:47.909Z,0.90
2022-12-31T00:51:15.016Z,0.60
2022-12-31T00:54:40.064Z,3.63
2022-12-31T00:58:08.051Z,2.05
2022-12-31T01:01:39.400Z,2.45
2022-12-31T01:05:01.360Z,4.00
2022-12-31T01:08:25.340Z,3.17
2022-12-31T01:11:50.973Z,3.03
2022-12-31T01:15:18.833Z,2.00
2022-12-31T01:18:43.115Z,0.63
2022-12-31T01:22:13.549Z,3.53
2022-12-31T01:25:41.921Z,3.47
2022-12-31T01:29:07.723Z,5.95
2022-12-31T01:32:29.535Z,2.20
2022-12-31T01:35:52.321Z,1.00
2022-12-31T01:39:21.031Z,1.77
2022-12-31T01:42:53.699Z,3.70
2022-12-31T01:46:41.226Z,1.02
2022-12-31T01:50:20.667Z,8.10
2022-12-31T01:53:45.960Z,1.13
2022-12-31T01:57:11.033Z,1.73
2022-12-31T02:00:33.319Z,2.35
2022-12-31T02:04:12.459Z,2.70
2022-12-31T02:07:38.303Z,3.20
2022-12-31T02:11:30.373Z,3.75
2022-12-31T02:14:57.318Z,8.93
2022-12-31T02:18:59.093Z,2.60
2022-12-31T02:22:51.885Z,4.32
2022-12-31T02:26:56.364Z,2.70
2022-12-31T02:30:32.854Z,2.38
2022-12-31T02:34:02.687Z,5.55
2022-12-31T02:37:32.789Z,5.07
2022-12-31T02:41:03.064Z,3.78
2022-12-31T02:44:28.900Z,3.13
2022-12-31T02:48:24.608Z,2.80
2022-12-31T02:52:14.000Z,9.23
2022-12-31T02:56:08.239Z,7.22
2022-12-31T03:00:24.174Z,1.75
2022-12-31T03:04:14.578Z,3.75
2022-12-31T03:07:48.127Z,7.18
2022-12-31T03:11:33.695Z,3.78
2022-12-31T03:14:55.652Z,7.38
2022-12-31T03:18:42.288Z,2.85
2022-12-31T03:22:28.724Z,3.72
2022-12-31T03:25:53.241Z,1.20
2022-12-31T03:29:22.388Z,3.70
2022-12-31T03:32:48.893Z,1.67
2022-12-31T03:36:26.189Z,4.22
2022-12-31T03:40:00.477Z,1.75
2022-12-31T03:43:39.344Z,5.05
2022-12-31T03:47:02.227Z,2.17
2022-12-31T03:50:30.882Z,5.75
2022-12-31T03:53:52.727Z,2.15
2022-12-31T03:57:14.656Z,6.82
2022-12-31T04:00:37.848Z,2.85
2022-12-31T04:04:03.263Z,1.65
2022-12-31T04:07:27.176Z,3.03
2022-12-31T04:10:55.920Z,4.47
2022-12-31T04:14:17.878Z,0.50
2022-12-31T04:17:39.695Z,3.15
2022-12-31T04:21:03.910Z,3.55
2022-12-31T04:24:35.732Z,1.25
2022-12-31T04:28:10.566Z,2.58
2022-12-31T04:31:32.843Z,0.55
2022-12-31T04:34:54.811Z,4.70
2022-12-31T04:38:16.789Z,3.17
2022-12-31T04:41:40.659Z,2.30
2022-12-31T04:45:10.788Z,3.15
2022-12-31T04:48:33.580Z,2.28
2022-12-31T04:51:55.447Z,1.90
2022-12-31T04:55:17.308Z,1.58
2022-12-31T04:58:45.004Z,1.88
2022-12-31T05:02:10.171Z,3.35
2022-12-31T05:05:39.552Z,2.97
2022-12-31T05:09:01.513Z,0.90
2022-12-31T05:12:33.511Z,2.17
2022-12-31T05:16:08.535Z,2.05
2022-12-31T05:19:30.315Z,1.95
2022-12-31T05:22:57.190Z,6.22
2022-12-31T05:26:26.232Z,3.65
2022-12-31T05:29:50.215Z,3.33
2022-12-31T05:33:12.212Z,1.95
2022-12-31T05:36:40.406Z,3.03
2022-12-31T05:40:03.572Z,1.98
2022-12-31T05:43:28.871Z,1.02
2022-12-31T05:46:55.838Z,1.00
2022-12-31T05:50:22.768Z,816.58
2022-12-31T05:53:50.540Z,1966.93
2022-12-31T05:57:12.620Z,1999.90
2022-12-31T06:00:34.547Z,1999.90
2022-12-31T06:03:56.521Z,1099.13
2022-12-31T06:07:26.529Z,935.40
2022-12-31T06:10:54.570Z,1099.95
2022-12-31T06:14:17.165Z,730.58
2022-12-31T06:17:49.190Z,647.17
2022-12-31T06:21:11.000Z,1313.25
2022-12-31T06:24:42.350Z,1179.18
2022-12-31T06:28:17.828Z,1209.95
2022-12-31T06:31:44.244Z,1999.90
2022-12-31T06:35:07.265Z,1999.90
2022-12-31T06:38:32.686Z,811.45
2022-12-31T06:41:55.719Z,1196.40
2022-12-31T06:45:17.881Z,941.38
2022-12-31T06:48:41.832Z,428.00
2022-12-31T06:52:04.807Z,333.48
2022-12-31T06:55:30.468Z,303.77
2022-12-31T06:58:52.948Z,228.15
2022-12-31T07:03:05.850Z,158.07
2022-12-31T07:07:07.099Z,160.88
2022-12-31T07:11:09.057Z,93.90
2022-12-31T07:14:59.705Z,82.07
2022-12-31T07:19:09.850Z,63.47
2022-12-31T07:22:32.170Z,42.47
2022-12-31T07:26:33.321Z,38.60
2022-12-31T07:30:23.151Z,36.92
2022-12-31T07:34:39.788Z,42.33
2022-12-31T07:38:17.498Z,38.63
2022-12-31T07:42:12.153Z,55.00
2022-12-31T07:45:50.809Z,55.72
2022-12-31T07:49:15.418Z,62.30
2022-12-31T07:52:37.703Z,30.45
2022-12-31T07:56:03.129Z,30.33
2022-12-31T07:59:59.901Z,106.57
2022-12-31T08:03:43.745Z,87.43
2022-12-31T08:07:48.811Z,55.25
2022-12-31T08:11:42.572Z,41.45
2022-12-31T08:15:19.349Z,47.30
2022-12-31T08:18:42.673Z,49.65
2022-12-31T08:22:35.574Z,51.20
2022-12-31T08:26:39.573Z,63.42
2022-12-31T08:30:26.127Z,48.20
2022-12-31T08:34:25.342Z,40.55
2022-12-31T08:38:53.771Z,23.42
2022-12-31T08:43:11.679Z,31.65
2022-12-31T08:46:53.886Z,32.33
2022-12-31T08:50:18.944Z,17.80
2022-12-31T08:53:49.164Z,23.63
2022-12-31T08:57:52.804Z,13.13
2022-12-31T09:06:34.364Z,8.77
2022-12-31T09:10:20.905Z,7.07
2022-12-31T09:14:20.154Z,5.05
2022-12-31T09:17:50.843Z,6.55
2022-12-31T09:21:24.868Z,5.28
2022-12-31T09:24:48.219Z,6.72
2022-12-31T09:28:32.483Z,4.40
2022-12-31T09:32:04.598Z,2.17
2022-12-31T09:35:54.017Z,9.43
2022-12-31T09:39:42.014Z,6.00
2022-12-31T09:43:33.858Z,7.53
2022-12-31T09:47:36.089Z,9.10
2022-12-31T09:51:25.661Z,10.02
2022-12-31T09:55:44.606Z,5.90
2022-12-31T09:59:34.787Z,11.05
2022-12-31T10:03:23.038Z,4.45
2022-12-31T10:07:24.705Z,2.70
2022-12-31T10:11:49.658Z,2.30
2022-12-31T10:16:17.692Z,3.42
2022-12-31T10:20:10.336Z,4.55
2022-12-31T10:24:00.209Z,4.57
2022-12-31T10:27:54.589Z,3.13
2022-12-31T10:31:53.578Z,7.00
2022-12-31T10:35:38.728Z,3.60
2022-12-31T10:40:13.101Z,4.00
2022-12-31T10:44:04.848Z,2.90
2022-12-31T10:47:58.014Z,4.20
2022-12-31T10:51:43.375Z,3.78
2022-12-31T10:55:54.463Z,3.25
2022-12-31T10:59:39.022Z,1.80
2022-12-31T11:03:46.236Z,2.42
2022-12-31T11:07:59.213Z,2.65
2022-12-31T11:12:13.716Z,2.83
2022-12-31T11:16:23.333Z,6.63
2022-12-31T11:20:04.510Z,3.53
2022-12-31T11:24:09.867Z,4.18
2022-12-31T11:28:17.563Z,7.55
2022-12-31T11:32:15.561Z,5.45
2022-12-31T11:36:12.640Z,4.72
2022-12-31T11:40:30.254Z,4.97
2022-12-31T11:44:37.408Z,6.55
2022-12-31T11:48:34.299Z,4.63
2022-12-31T11:52:35.382Z,3.30
2022-12-31T11:56:17.473Z,1.98
2022-12-31T11:59:41.320Z,4.43
2022-12-31T12:03:09.793Z,4.00
2022-12-31T12:06:57.739Z,3.42
2022-12-31T12:14:57.576Z,3.90
2022-12-31T14:24:05.156Z,4.80
2022-12-31T14:27:33.040Z,6.60
2022-12-31T14:31:13.704Z,4.00
2022-12-31T14:35:32.592Z,2.38
2022-12-31T14:39:46.212Z,2.13
2022-12-31T14:43:34.608Z,2.40
2022-12-31T14:47:12.933Z,5.30
2022-12-31T14:50:40.156Z,4.40
2022-12-31T14:54:34.669Z,5.07
2022-12-31T14:58:27.119Z,2.20
2022-12-31T15:01:45.926Z,6.05
2022-12-31T15:06:24.438Z,1.80
2022-12-31T15:15:08.099Z,1.75
2022-12-31T15:18:50.157Z,2.55
2022-12-31T15:22:54.315Z,5.30
2022-12-31T15:26:27.662Z,4.18
2022-12-31T15:29:49.543Z,6.22
2022-12-31T15:33:48.075Z,3.08
2022-12-31T15:37:36.645Z,3.75
2022-12-31T15:41:14.743Z,2.58
2022-12-31T15:44:49.648Z,3.17
2022-12-31T15:48:52.614Z,3.97
2022-12-31T15:52:30.192Z,3.10
2022-12-31T15:55:56.096Z,2.63
2022-12-31T15:59:25.162Z,4.68
2022-12-31T16:02:55.237Z,7.05
2022-12-31T16:06:18.119Z,2.88
2022-12-31T16:09:40.780Z,3.45
2022-12-31T16:13:02.688Z,3.97
2022-12-31T16:16:31.713Z,2.55
2022-12-31T16:20:41.253Z,3.13
2022-12-31T16:24:48.877Z,3.95
2022-12-31T16:28:20.956Z,5.35
2022-12-31T16:32:10.103Z,2.00
2022-12-31T16:35:36.570Z,5.65
2022-12-31T16:39:30.205Z,2.75
2022-12-31T16:42:53.159Z,3.80
2022-12-31T16:46:26.659Z,3.40
2022-12-31T16:50:00.144Z,5.57
2022-12-31T16:53:27.443Z,4.07
2022-12-31T16:57:25.032Z,4.15
2022-12-31T17:00:50.890Z,8.45
2022-12-31T17:04:24.546Z,5.20
2022-12-31T17:07:46.500Z,6.32
2022-12-31T17:11:50.477Z,4.18
2022-12-31T17:15:45.969Z,4.57
2022-12-31T17:19:47.230Z,10.40
2022-12-31T17:23:17.594Z,4.55
2022-12-31T17:26:39.488Z,5.60
2022-12-31T17:30:30.002Z,4.88
2022-12-31T17:34:04.173Z,4.93
2022-12-31T17:37:29.967Z,5.13
2022-12-31T17:41:07.992Z,3.97
2022-12-31T17:44:34.450Z,3.15
2022-12-31T17:47:59.664Z,8.52
2022-12-31T17:51:24.457Z,7.28
2022-12-31T17:54:47.700Z,4.13
2022-12-31T17:58:29.423Z,9.77
2022-12-31T18:01:52.033Z,5.05
2022-12-31T18:05:18.095Z,8.70
2022-12-31T18:08:40.027Z,9.10
2022-12-31T18:12:05.719Z,5.38
2022-12-31T18:15:29.517Z,8.57
2022-12-31T18:19:01.024Z,6.53
2022-12-31T18:22:22.853Z,8.95
2022-12-31T18:29:17.029Z,10.82
2022-12-31T18:32:41.562Z,11.45
2022-12-31T18:36:15.214Z,7.90
2022-12-31T18:39:46.228Z,14.23
2022-12-31T18:43:19.160Z,7.38
2022-12-31T18:46:43.039Z,5.78
2022-12-31T18:50:06.555Z,8.38
2022-12-31T18:53:28.385Z,5.80
2022-12-31T18:56:55.277Z,5.90
2022-12-31T19:00:19.366Z,4.82
2022-12-31T19:03:58.902Z,7.07
2022-12-31T19:07:20.677Z,15.50
2022-12-31T19:10:42.588Z,14.88
2022-12-31T19:14:20.362Z,21.67
2022-12-31T19:17:44.212Z,23.95
2022-12-31T19:21:06.355Z,9.40
2022-12-31T19:24:28.628Z,7.20
2022-12-31T19:27:51.907Z,5.95
2022-12-31T19:31:19.652Z,4.07
2022-12-31T19:34:41.479Z,6.47
2022-12-31T19:38:03.395Z,3.47
2022-12-31T19:41:26.296Z,2.60
2022-12-31T19:44:48.166Z,4.70
2022-12-31T19:48:16.087Z,2.40
2022-12-31T19:51:38.200Z,1.98
2022-12-31T19:55:02.442Z,4.43
2022-12-31T19:58:26.463Z,8.15
2022-12-31T20:01:48.301Z,6.05
2022-12-31T20:05:19.447Z,6.68
2022-12-31T20:08:44.576Z,6.60
2022-12-31T20:12:06.755Z,6.35
2022-12-31T20:15:30.934Z,3.85
2022-12-31T20:18:55.035Z,3.90
2022-12-31T20:22:21.962Z,8.15
2022-12-31T20:26:00.204Z,2.60
2022-12-31T20:29:22.188Z,2.40
2022-12-31T20:32:45.058Z,2.08
2022-12-31T20:36:12.950Z,2.97
2022-12-31T20:39:42.988Z,3.95
2022-12-31T20:43:04.959Z,2.47
2022-12-31T20:46:38.227Z,3.75
2022-12-31T20:50:15.475Z,7.85
2022-12-31T20:54:04.323Z,5.82
2022-12-31T20:57:33.969Z,5.40
2022-12-31T21:00:56.283Z,3.72
2022-12-31T21:04:20.369Z,6.57
2022-12-31T21:07:43.382Z,4.75
2022-12-31T21:11:26.197Z,3.92
2022-12-31T21:14:50.037Z,5.38
2022-12-31T21:18:11.899Z,2.85
2022-12-31T21:21:34.277Z,3.10
2022-12-31T21:24:56.234Z,4.15
2022-12-31T21:28:20.040Z,7.90
2022-12-31T21:31:44.845Z,6.50
2022-12-31T21:39:01.857Z,2.95
2022-12-31T21:42:24.196Z,2.13
2022-12-31T21:45:46.345Z,1.75
2022-12-31T21:49:09.169Z,2.60
2022-12-31T21:52:34.065Z,3.28
2022-12-31T21:56:16.032Z,4.00
2022-12-31T22:00:23.982Z,4.63
2022-12-31T22:03:38.676Z,3.70
2022-12-31T22:07:00.614Z,4.22
2022-12-31T22:10:27.699Z,5.40
2022-12-31T22:13:51.923Z,4.15
2022-12-31T22:17:13.819Z,5.00
2022-12-31T22:20:37.839Z,3.13
2022-12-31T22:24:03.075Z,4.55
2022-12-31T22:27:28.201Z,6.60
2022-12-31T22:31:01.168Z,5.20
2022-12-31T22:34:26.517Z,6.97
2022-12-31T22:38:06.472Z,6.88
2022-12-31T22:41:41.478Z,3.78
2022-12-31T22:45:11.014Z,3.30
2022-12-31T22:48:40.278Z,3.05
2022-12-31T22:52:05.739Z,6.22
2022-12-31T22:55:31.013Z,3.65
2022-12-31T22:58:56.251Z,5.13
2022-12-31T23:02:18.381Z,14.00
2022-12-31T23:05:58.951Z,18.17
2022-12-31T23:09:39.813Z,21.08
2022-12-31T23:13:29.674Z,17.88
2022-12-31T23:17:29.801Z,7.95
2022-12-31T23:21:13.147Z,11.60
2022-12-31T23:24:35.151Z,10.40
2022-12-31T23:27:57.093Z,11.77
2022-12-31T23:31:21.062Z,12.45
2022-12-31T23:34:45.731Z,13.73
2022-12-31T23:38:07.935Z,14.18
2022-12-31T23:41:30.869Z,6.25
2022-12-31T23:44:57.917Z,4.40
2022-12-31T23:48:20.091Z,7.13
2022-12-31T23:51:42.129Z,4.00
2022-12-31T23:55:04.509Z,6.07
2022-12-31T23:58:44.149Z,5.50
